sensor_id;sensor_type;location;lat;lon;timestamp;temperature;humidity
16879;DHT22;8556;52.218;9.884;2023-07-29T00:00:44;19.10;99.90
16879;DHT22;8556;52.218;9.884;2023-07-29T00:03:11;19.30;99.90
16879;DHT22;8556;52.218;9.884;2023-07-29T00:05:39;19.10;99.90
16879;DHT22;8556;52.218;9.884;2023-07-29T00:08:06;19.10;99.90
16879;DHT22;8556;52.218;9.884;2023-07-29T00:10:34;19.00;99.90
16879;DHT22;8556;52.218;9.884;2023-07-29T00:13:02;19.10;99.90
16879;DHT22;8556;52.218;9.884;2023-07-29T00:15:30;19.10;99.90
16879;DHT22;8556;52.218;9.884;2023-07-29T00:17:57;19.00;99.90
16879;DHT22;8556;52.218;9.884;2023-07-29T00:20:24;19.00;99.90
16879;DHT22;8556;52.218;9.884;2023-07-29T00:22:51;18.90;99.90
16879;DHT22;8556;52.218;9.884;2023-07-29T00:25:19;19.00;99.90
16879;DHT22;8556;52.218;9.884;2023-07-29T00:27:46;18.90;99.90
16879;DHT22;8556;52.218;9.884;2023-07-29T00:30:14;18.80;99.90
16879;DHT22;8556;52.218;9.884;2023-07-29T00:32:42;18.80;99.90
16879;DHT22;8556;52.218;9.884;2023-07-29T00:35:09;18.70;99.90
16879;DHT22;8556;52.218;9.884;2023-07-29T00:37:36;18.80;99.90
16879;DHT22;8556;52.218;9.884;2023-07-29T00:40:14;18.90;99.90
16879;DHT22;8556;52.218;9.884;2023-07-29T00:42:41;19.00;99.90
16879;DHT22;8556;52.218;9.884;2023-07-29T00:45:09;18.90;99.90
16879;DHT22;8556;52.218;9.884;2023-07-29T00:47:37;18.90;99.90
16879;DHT22;8556;52.218;9.884;2023-07-29T00:50:06;18.70;99.90
16879;DHT22;8556;52.218;9.884;2023-07-29T00:52:33;18.80;99.90
16879;DHT22;8556;52.218;9.884;2023-07-29T00:55:00;18.70;99.90
16879;DHT22;8556;52.218;9.884;2023-07-29T00:57:29;18.70;99.90
16879;DHT22;8556;52.218;9.884;2023-07-29T00:59:57;18.70;99.90
16879;DHT22;8556;52.218;9.884;2023-07-29T01:02:24;18.90;99.90
16879;DHT22;8556;52.218;9.884;2023-07-29T01:04:52;18.70;99.90
16879;DHT22;8556;52.218;9.884;2023-07-29T01:07:26;18.50;99.90
16879;DHT22;8556;52.218;9.884;2023-07-29T01:10:01;18.40;99.90
16879;DHT22;8556;52.218;9.884;2023-07-29T01:12:36;18.40;99.90
16879;DHT22;8556;52.218;9.884;2023-07-29T01:15:13;18.40;99.90
16879;DHT22;8556;52.218;9.884;2023-07-29T01:17:46;18.30;99.90
16879;DHT22;8556;52.218;9.884;2023-07-29T01:20:15;18.30;99.90
16879;DHT22;8556;52.218;9.884;2023-07-29T01:22:44;18.30;99.90
16879;DHT22;8556;52.218;9.884;2023-07-29T01:25:12;18.20;99.90
16879;DHT22;8556;52.218;9.884;2023-07-29T01:27:40;18.30;99.90
16879;DHT22;8556;52.218;9.884;2023-07-29T01:30:07;18.30;99.90
16879;DHT22;8556;52.218;9.884;2023-07-29T01:32:39;18.10;99.90
16879;DHT22;8556;52.218;9.884;2023-07-29T01:35:15;18.00;99.90
16879;DHT22;8556;52.218;9.884;2023-07-29T01:37:45;17.90;99.90
16879;DHT22;8556;52.218;9.884;2023-07-29T01:40:15;18.00;99.90
16879;DHT22;8556;52.218;9.884;2023-07-29T01:42:43;17.90;99.90
16879;DHT22;8556;52.218;9.884;2023-07-29T01:45:11;18.10;99.90
16879;DHT22;8556;52.218;9.884;2023-07-29T01:47:38;18.00;99.90
16879;DHT22;8556;52.218;9.884;2023-07-29T01:50:07;18.10;99.90
16879;DHT22;8556;52.218;9.884;2023-07-29T01:52:35;18.00;99.90
16879;DHT22;8556;52.218;9.884;2023-07-29T01:55:02;18.10;99.90
16879;DHT22;8556;52.218;9.884;2023-07-29T01:57:30;18.20;99.90
16879;DHT22;8556;52.218;9.884;2023-07-29T01:59:57;18.20;99.90
16879;DHT22;8556;52.218;9.884;2023-07-29T02:02:24;18.20;99.90
16879;DHT22;8556;52.218;9.884;2023-07-29T02:04:51;18.10;99.90
16879;DHT22;8556;52.218;9.884;2023-07-29T02:07:18;18.10;99.90
16879;DHT22;8556;52.218;9.884;2023-07-29T02:09:45;18.10;99.90
16879;DHT22;8556;52.218;9.884;2023-07-29T02:12:12;18.00;99.90
16879;DHT22;8556;52.218;9.884;2023-07-29T02:14:40;17.90;99.90
16879;DHT22;8556;52.218;9.884;2023-07-29T02:17:07;18.10;99.90
16879;DHT22;8556;52.218;9.884;2023-07-29T02:19:34;18.00;99.90
16879;DHT22;8556;52.218;9.884;2023-07-29T02:22:01;18.20;99.90
16879;DHT22;8556;52.218;9.884;2023-07-29T02:24:28;18.20;99.90
16879;DHT22;8556;52.218;9.884;2023-07-29T02:26:54;18.30;99.90
16879;DHT22;8556;52.218;9.884;2023-07-29T02:29:21;18.40;99.90
16879;DHT22;8556;52.218;9.884;2023-07-29T02:31:50;18.40;99.90
16879;DHT22;8556;52.218;9.884;2023-07-29T02:34:17;18.40;99.90
16879;DHT22;8556;52.218;9.884;2023-07-29T02:36:43;18.40;99.90
16879;DHT22;8556;52.218;9.884;2023-07-29T02:39:11;18.30;99.90
16879;DHT22;8556;52.218;9.884;2023-07-29T02:41:37;18.30;99.90
16879;DHT22;8556;52.218;9.884;2023-07-29T02:44:05;18.30;99.90
16879;DHT22;8556;52.218;9.884;2023-07-29T02:46:32;18.30;99.90
16879;DHT22;8556;52.218;9.884;2023-07-29T02:49:01;18.20;99.90
16879;DHT22;8556;52.218;9.884;2023-07-29T02:51:28;18.30;99.90
16879;DHT22;8556;52.218;9.884;2023-07-29T02:53:55;18.40;99.90
16879;DHT22;8556;52.218;9.884;2023-07-29T02:56:22;18.40;99.90
16879;DHT22;8556;52.218;9.884;2023-07-29T02:58:49;18.50;99.90
16879;DHT22;8556;52.218;9.884;2023-07-29T03:01:17;18.50;99.90
16879;DHT22;8556;52.218;9.884;2023-07-29T03:03:44;18.60;99.90
16879;DHT22;8556;52.218;9.884;2023-07-29T03:06:14;18.60;99.90
16879;DHT22;8556;52.218;9.884;2023-07-29T03:08:41;18.60;99.90
16879;DHT22;8556;52.218;9.884;2023-07-29T03:11:10;18.70;99.90
16879;DHT22;8556;52.218;9.884;2023-07-29T03:13:36;18.70;99.90
16879;DHT22;8556;52.218;9.884;2023-07-29T03:16:06;18.70;99.90
16879;DHT22;8556;52.218;9.884;2023-07-29T03:18:33;18.70;99.90
16879;DHT22;8556;52.218;9.884;2023-07-29T03:21:00;18.70;99.90
16879;DHT22;8556;52.218;9.884;2023-07-29T03:23:29;18.70;99.90
16879;DHT22;8556;52.218;9.884;2023-07-29T03:25:57;18.80;99.90
16879;DHT22;8556;52.218;9.884;2023-07-29T03:28:24;18.70;99.90
16879;DHT22;8556;52.218;9.884;2023-07-29T03:30:52;18.70;99.90
16879;DHT22;8556;52.218;9.884;2023-07-29T03:33:19;18.70;99.90
16879;DHT22;8556;52.218;9.884;2023-07-29T03:35:46;18.80;99.90
16879;DHT22;8556;52.218;9.884;2023-07-29T03:38:13;18.80;99.90
16879;DHT22;8556;52.218;9.884;2023-07-29T03:40:42;18.80;99.90
16879;DHT22;8556;52.218;9.884;2023-07-29T03:43:09;18.80;99.90
16879;DHT22;8556;52.218;9.884;2023-07-29T03:45:36;18.70;99.90
16879;DHT22;8556;52.218;9.884;2023-07-29T03:48:04;18.70;99.90
16879;DHT22;8556;52.218;9.884;2023-07-29T03:50:33;18.70;99.90
16879;DHT22;8556;52.218;9.884;2023-07-29T03:53:00;18.70;99.90
16879;DHT22;8556;52.218;9.884;2023-07-29T03:55:27;18.70;99.90
16879;DHT22;8556;52.218;9.884;2023-07-29T03:57:56;18.60;99.90
16879;DHT22;8556;52.218;9.884;2023-07-29T04:00:23;18.50;99.90
16879;DHT22;8556;52.218;9.884;2023-07-29T04:02:50;18.50;99.90
16879;DHT22;8556;52.218;9.884;2023-07-29T04:05:17;18.60;99.90
16879;DHT22;8556;52.218;9.884;2023-07-29T04:07:44;18.70;99.90
16879;DHT22;8556;52.218;9.884;2023-07-29T04:10:11;18.70;99.90
16879;DHT22;8556;52.218;9.884;2023-07-29T04:12:38;18.70;99.90
16879;DHT22;8556;52.218;9.884;2023-07-29T04:15:07;18.70;99.90
16879;DHT22;8556;52.218;9.884;2023-07-29T04:17:34;18.80;99.90
16879;DHT22;8556;52.218;9.884;2023-07-29T04:20:01;18.80;99.90
16879;DHT22;8556;52.218;9.884;2023-07-29T04:22:28;18.80;99.90
16879;DHT22;8556;52.218;9.884;2023-07-29T04:24:55;18.90;99.90
16879;DHT22;8556;52.218;9.884;2023-07-29T04:27:21;18.90;99.90
16879;DHT22;8556;52.218;9.884;2023-07-29T04:29:48;18.90;99.90
16879;DHT22;8556;52.218;9.884;2023-07-29T04:32:16;18.90;99.90
16879;DHT22;8556;52.218;9.884;2023-07-29T04:34:43;18.80;99.90
16879;DHT22;8556;52.218;9.884;2023-07-29T04:37:10;18.90;99.90
16879;DHT22;8556;52.218;9.884;2023-07-29T04:39:37;19.00;99.90
16879;DHT22;8556;52.218;9.884;2023-07-29T04:42:05;18.90;99.90
16879;DHT22;8556;52.218;9.884;2023-07-29T04:44:32;18.90;99.90
16879;DHT22;8556;52.218;9.884;2023-07-29T04:46:59;18.80;99.90
16879;DHT22;8556;52.218;9.884;2023-07-29T04:49:27;18.90;99.90
16879;DHT22;8556;52.218;9.884;2023-07-29T04:51:54;18.90;99.90
16879;DHT22;8556;52.218;9.884;2023-07-29T04:54:20;18.90;99.90
16879;DHT22;8556;52.218;9.884;2023-07-29T04:56:56;18.90;99.90
16879;DHT22;8556;52.218;9.884;2023-07-29T04:59:22;19.00;99.90
16879;DHT22;8556;52.218;9.884;2023-07-29T05:01:49;19.00;99.90
16879;DHT22;8556;52.218;9.884;2023-07-29T05:04:18;19.10;99.90
16879;DHT22;8556;52.218;9.884;2023-07-29T05:06:46;19.10;99.90
16879;DHT22;8556;52.218;9.884;2023-07-29T05:09:13;19.20;99.90
16879;DHT22;8556;52.218;9.884;2023-07-29T05:11:41;19.20;99.90
16879;DHT22;8556;52.218;9.884;2023-07-29T05:14:09;19.20;99.90
16879;DHT22;8556;52.218;9.884;2023-07-29T05:16:36;19.20;99.90
16879;DHT22;8556;52.218;9.884;2023-07-29T05:19:02;19.20;99.90
16879;DHT22;8556;52.218;9.884;2023-07-29T05:21:30;19.20;99.90
16879;DHT22;8556;52.218;9.884;2023-07-29T05:23:58;19.30;99.90
16879;DHT22;8556;52.218;9.884;2023-07-29T05:26:25;19.30;99.90
16879;DHT22;8556;52.218;9.884;2023-07-29T05:28:52;19.30;99.90
16879;DHT22;8556;52.218;9.884;2023-07-29T05:31:18;19.30;99.90
16879;DHT22;8556;52.218;9.884;2023-07-29T05:33:45;19.40;99.90
16879;DHT22;8556;52.218;9.884;2023-07-29T05:36:12;19.30;99.90
16879;DHT22;8556;52.218;9.884;2023-07-29T05:38:39;19.30;99.90
16879;DHT22;8556;52.218;9.884;2023-07-29T05:41:07;19.20;99.90
16879;DHT22;8556;52.218;9.884;2023-07-29T05:43:36;19.40;99.90
16879;DHT22;8556;52.218;9.884;2023-07-29T05:46:03;19.30;99.90
16879;DHT22;8556;52.218;9.884;2023-07-29T05:48:30;19.20;99.90
16879;DHT22;8556;52.218;9.884;2023-07-29T05:50:57;19.20;99.90
16879;DHT22;8556;52.218;9.884;2023-07-29T05:53:24;19.30;99.90
16879;DHT22;8556;52.218;9.884;2023-07-29T05:55:51;19.20;99.90
16879;DHT22;8556;52.218;9.884;2023-07-29T05:58:19;19.20;99.90
16879;DHT22;8556;52.218;9.884;2023-07-29T06:00:46;19.20;99.90
16879;DHT22;8556;52.218;9.884;2023-07-29T06:03:13;19.10;99.90
16879;DHT22;8556;52.218;9.884;2023-07-29T06:05:40;19.10;99.90
16879;DHT22;8556;52.218;9.884;2023-07-29T06:08:06;19.20;99.90
16879;DHT22;8556;52.218;9.884;2023-07-29T06:10:34;19.20;99.90
16879;DHT22;8556;52.218;9.884;2023-07-29T06:13:01;19.30;99.90
16879;DHT22;8556;52.218;9.884;2023-07-29T06:15:29;19.40;99.90
16879;DHT22;8556;52.218;9.884;2023-07-29T06:17:56;19.40;99.90
16879;DHT22;8556;52.218;9.884;2023-07-29T06:20:24;19.30;99.90
16879;DHT22;8556;52.218;9.884;2023-07-29T06:22:50;19.30;99.90
16879;DHT22;8556;52.218;9.884;2023-07-29T06:25:17;19.30;99.90
16879;DHT22;8556;52.218;9.884;2023-07-29T06:27:44;19.30;99.90
16879;DHT22;8556;52.218;9.884;2023-07-29T06:30:11;19.20;99.90
16879;DHT22;8556;52.218;9.884;2023-07-29T06:32:40;19.30;99.90
16879;DHT22;8556;52.218;9.884;2023-07-29T06:35:07;19.30;99.90
16879;DHT22;8556;52.218;9.884;2023-07-29T06:37:34;19.40;99.90
16879;DHT22;8556;52.218;9.884;2023-07-29T06:40:01;19.30;99.90
16879;DHT22;8556;52.218;9.884;2023-07-29T06:42:28;19.40;99.90
16879;DHT22;8556;52.218;9.884;2023-07-29T06:44:55;19.40;99.90
16879;DHT22;8556;52.218;9.884;2023-07-29T06:47:22;19.50;99.90
16879;DHT22;8556;52.218;9.884;2023-07-29T06:49:50;19.70;99.90
16879;DHT22;8556;52.218;9.884;2023-07-29T06:52:17;19.80;99.90
16879;DHT22;8556;52.218;9.884;2023-07-29T06:54:44;19.80;99.90
16879;DHT22;8556;52.218;9.884;2023-07-29T06:57:10;19.90;99.90
16879;DHT22;8556;52.218;9.884;2023-07-29T06:59:37;20.00;99.90
16879;DHT22;8556;52.218;9.884;2023-07-29T07:02:05;20.00;99.90
16879;DHT22;8556;52.218;9.884;2023-07-29T07:04:32;19.90;99.90
16879;DHT22;8556;52.218;9.884;2023-07-29T07:07:00;19.80;99.90
16879;DHT22;8556;52.218;9.884;2023-07-29T07:09:27;19.90;99.90
16879;DHT22;8556;52.218;9.884;2023-07-29T07:11:53;19.90;99.90
16879;DHT22;8556;52.218;9.884;2023-07-29T07:14:21;19.80;99.90
16879;DHT22;8556;52.218;9.884;2023-07-29T07:16:47;20.00;99.90
16879;DHT22;8556;52.218;9.884;2023-07-29T07:19:14;20.00;99.90
16879;DHT22;8556;52.218;9.884;2023-07-29T07:21:41;20.00;99.90
16879;DHT22;8556;52.218;9.884;2023-07-29T07:24:09;20.10;99.90
16879;DHT22;8556;52.218;9.884;2023-07-29T07:26:36;20.10;99.90
16879;DHT22;8556;52.218;9.884;2023-07-29T07:29:03;19.90;99.90
16879;DHT22;8556;52.218;9.884;2023-07-29T07:31:33;20.10;99.90
16879;DHT22;8556;52.218;9.884;2023-07-29T07:34:00;20.10;99.90
16879;DHT22;8556;52.218;9.884;2023-07-29T07:36:31;20.10;99.90
16879;DHT22;8556;52.218;9.884;2023-07-29T07:38:58;20.10;99.90
16879;DHT22;8556;52.218;9.884;2023-07-29T07:41:26;20.00;99.90
16879;DHT22;8556;52.218;9.884;2023-07-29T07:43:53;20.00;99.90
16879;DHT22;8556;52.218;9.884;2023-07-29T07:46:19;20.10;99.90
16879;DHT22;8556;52.218;9.884;2023-07-29T07:48:46;20.10;99.90
16879;DHT22;8556;52.218;9.884;2023-07-29T07:51:13;20.20;99.90
16879;DHT22;8556;52.218;9.884;2023-07-29T07:53:40;20.20;99.90
16879;DHT22;8556;52.218;9.884;2023-07-29T07:56:07;20.30;99.90
16879;DHT22;8556;52.218;9.884;2023-07-29T07:58:35;20.30;99.90
16879;DHT22;8556;52.218;9.884;2023-07-29T08:01:03;20.60;99.90
16879;DHT22;8556;52.218;9.884;2023-07-29T08:03:30;20.60;99.90
16879;DHT22;8556;52.218;9.884;2023-07-29T08:05:57;20.60;99.90
16879;DHT22;8556;52.218;9.884;2023-07-29T08:08:25;20.80;99.90
16879;DHT22;8556;52.218;9.884;2023-07-29T08:10:52;21.00;99.90
16879;DHT22;8556;52.218;9.884;2023-07-29T08:13:20;20.90;99.90
16879;DHT22;8556;52.218;9.884;2023-07-29T08:15:49;21.00;99.90
16879;DHT22;8556;52.218;9.884;2023-07-29T08:18:18;21.00;99.90
16879;DHT22;8556;52.218;9.884;2023-07-29T08:20:52;21.00;99.90
16879;DHT22;8556;52.218;9.884;2023-07-29T08:23:21;21.00;99.90
16879;DHT22;8556;52.218;9.884;2023-07-29T08:25:52;21.00;99.90
16879;DHT22;8556;52.218;9.884;2023-07-29T08:28:19;21.00;99.90
16879;DHT22;8556;52.218;9.884;2023-07-29T08:30:48;20.90;99.90
16879;DHT22;8556;52.218;9.884;2023-07-29T08:33:15;20.90;99.90
16879;DHT22;8556;52.218;9.884;2023-07-29T08:35:41;20.80;99.90
16879;DHT22;8556;52.218;9.884;2023-07-29T08:38:09;20.80;99.90
16879;DHT22;8556;52.218;9.884;2023-07-29T08:40:40;20.90;99.90
16879;DHT22;8556;52.218;9.884;2023-07-29T08:43:08;21.10;99.90
16879;DHT22;8556;52.218;9.884;2023-07-29T08:45:36;21.10;99.90
16879;DHT22;8556;52.218;9.884;2023-07-29T08:48:10;21.00;99.90
16879;DHT22;8556;52.218;9.884;2023-07-29T08:50:39;20.90;99.90
16879;DHT22;8556;52.218;9.884;2023-07-29T08:53:07;20.80;99.90
16879;DHT22;8556;52.218;9.884;2023-07-29T08:55:35;20.80;99.90
16879;DHT22;8556;52.218;9.884;2023-07-29T08:58:03;20.80;99.90
16879;DHT22;8556;52.218;9.884;2023-07-29T09:00:31;20.90;99.90
16879;DHT22;8556;52.218;9.884;2023-07-29T09:02:58;20.80;99.90
16879;DHT22;8556;52.218;9.884;2023-07-29T09:05:33;20.80;99.90
16879;DHT22;8556;52.218;9.884;2023-07-29T09:08:00;20.80;99.90
16879;DHT22;8556;52.218;9.884;2023-07-29T09:10:28;20.90;99.90
16879;DHT22;8556;52.218;9.884;2023-07-29T09:12:55;20.80;99.90
16879;DHT22;8556;52.218;9.884;2023-07-29T09:15:29;20.80;99.90
16879;DHT22;8556;52.218;9.884;2023-07-29T09:17:56;20.90;99.90
16879;DHT22;8556;52.218;9.884;2023-07-29T09:20:24;21.10;99.90
16879;DHT22;8556;52.218;9.884;2023-07-29T09:22:54;21.20;99.90
16879;DHT22;8556;52.218;9.884;2023-07-29T09:25:25;21.30;99.90
16879;DHT22;8556;52.218;9.884;2023-07-29T09:27:52;21.20;99.90
16879;DHT22;8556;52.218;9.884;2023-07-29T09:30:19;21.30;99.90
16879;DHT22;8556;52.218;9.884;2023-07-29T09:32:46;21.50;99.90
16879;DHT22;8556;52.218;9.884;2023-07-29T09:35:13;21.50;99.90
16879;DHT22;8556;52.218;9.884;2023-07-29T09:37:40;21.60;99.90
16879;DHT22;8556;52.218;9.884;2023-07-29T09:40:14;21.70;99.90
16879;DHT22;8556;52.218;9.884;2023-07-29T09:42:48;21.60;99.90
16879;DHT22;8556;52.218;9.884;2023-07-29T09:45:20;21.80;99.90
16879;DHT22;8556;52.218;9.884;2023-07-29T09:47:47;21.90;99.90
16879;DHT22;8556;52.218;9.884;2023-07-29T09:50:15;22.00;99.90
16879;DHT22;8556;52.218;9.884;2023-07-29T09:52:42;21.80;99.90
16879;DHT22;8556;52.218;9.884;2023-07-29T09:55:12;22.30;99.90
16879;DHT22;8556;52.218;9.884;2023-07-29T09:57:40;22.30;99.90
16879;DHT22;8556;52.218;9.884;2023-07-29T10:00:10;22.60;99.90
16879;DHT22;8556;52.218;9.884;2023-07-29T10:02:38;22.80;99.90
16879;DHT22;8556;52.218;9.884;2023-07-29T10:05:06;22.70;99.90
16879;DHT22;8556;52.218;9.884;2023-07-29T10:07:34;22.60;99.90
16879;DHT22;8556;52.218;9.884;2023-07-29T10:10:02;22.50;99.90
16879;DHT22;8556;52.218;9.884;2023-07-29T10:12:32;23.10;99.90
16879;DHT22;8556;52.218;9.884;2023-07-29T10:15:00;23.70;99.90
16879;DHT22;8556;52.218;9.884;2023-07-29T10:17:27;24.00;99.90
16879;DHT22;8556;52.218;9.884;2023-07-29T10:19:56;23.80;99.90
16879;DHT22;8556;52.218;9.884;2023-07-29T10:22:25;23.50;99.90
16879;DHT22;8556;52.218;9.884;2023-07-29T10:24:56;23.40;99.90
16879;DHT22;8556;52.218;9.884;2023-07-29T10:27:27;23.30;99.90
16879;DHT22;8556;52.218;9.884;2023-07-29T10:29:56;23.20;99.90
16879;DHT22;8556;52.218;9.884;2023-07-29T10:32:25;22.90;99.90
16879;DHT22;8556;52.218;9.884;2023-07-29T10:34:53;22.70;99.90
16879;DHT22;8556;52.218;9.884;2023-07-29T10:37:21;23.30;99.90
16879;DHT22;8556;52.218;9.884;2023-07-29T10:39:53;24.10;99.90
16879;DHT22;8556;52.218;9.884;2023-07-29T10:42:20;24.20;99.90
16879;DHT22;8556;52.218;9.884;2023-07-29T10:44:48;23.80;99.90
16879;DHT22;8556;52.218;9.884;2023-07-29T10:47:21;23.80;99.90
16879;DHT22;8556;52.218;9.884;2023-07-29T10:49:50;24.20;99.90
16879;DHT22;8556;52.218;9.884;2023-07-29T10:52:40;24.70;99.90
16879;DHT22;8556;52.218;9.884;2023-07-29T10:55:23;25.30;99.90
16879;DHT22;8556;52.218;9.884;2023-07-29T10:57:50;25.10;99.90
16879;DHT22;8556;52.218;9.884;2023-07-29T11:00:19;25.70;99.90
16879;DHT22;8556;52.218;9.884;2023-07-29T11:02:58;25.80;99.90
16879;DHT22;8556;52.218;9.884;2023-07-29T11:05:26;25.90;99.90
16879;DHT22;8556;52.218;9.884;2023-07-29T11:07:53;24.90;99.90
16879;DHT22;8556;52.218;9.884;2023-07-29T11:10:21;24.40;99.90
16879;DHT22;8556;52.218;9.884;2023-07-29T11:12:49;24.40;99.90
16879;DHT22;8556;52.218;9.884;2023-07-29T11:15:24;25.00;99.90
16879;DHT22;8556;52.218;9.884;2023-07-29T11:17:54;24.90;99.90
16879;DHT22;8556;52.218;9.884;2023-07-29T11:20:22;25.50;99.90
16879;DHT22;8556;52.218;9.884;2023-07-29T11:22:49;25.70;99.90
16879;DHT22;8556;52.218;9.884;2023-07-29T11:25:17;25.90;99.90
16879;DHT22;8556;52.218;9.884;2023-07-29T11:27:45;26.20;99.90
16879;DHT22;8556;52.218;9.884;2023-07-29T11:30:14;26.20;99.90
16879;DHT22;8556;52.218;9.884;2023-07-29T11:32:42;26.50;99.90
16879;DHT22;8556;52.218;9.884;2023-07-29T11:35:13;26.40;99.90
16879;DHT22;8556;52.218;9.884;2023-07-29T11:37:42;26.20;99.90
16879;DHT22;8556;52.218;9.884;2023-07-29T11:40:13;26.40;99.90
16879;DHT22;8556;52.218;9.884;2023-07-29T11:42:41;26.80;99.90
16879;DHT22;8556;52.218;9.884;2023-07-29T11:45:08;26.80;99.90
16879;DHT22;8556;52.218;9.884;2023-07-29T11:47:36;26.80;99.90
16879;DHT22;8556;52.218;9.884;2023-07-29T11:50:04;26.60;99.90
16879;DHT22;8556;52.218;9.884;2023-07-29T11:52:33;26.50;99.90
16879;DHT22;8556;52.218;9.884;2023-07-29T11:55:00;26.50;99.90
16879;DHT22;8556;52.218;9.884;2023-07-29T11:57:28;26.60;99.90
16879;DHT22;8556;52.218;9.884;2023-07-29T11:59:55;26.60;99.90
16879;DHT22;8556;52.218;9.884;2023-07-29T12:02:23;26.40;99.90
16879;DHT22;8556;52.218;9.884;2023-07-29T12:04:52;26.40;99.90
16879;DHT22;8556;52.218;9.884;2023-07-29T12:07:19;25.80;99.90
16879;DHT22;8556;52.218;9.884;2023-07-29T12:09:48;25.40;99.90
16879;DHT22;8556;52.218;9.884;2023-07-29T12:12:16;25.90;99.90
16879;DHT22;8556;52.218;9.884;2023-07-29T12:14:45;26.20;99.90
16879;DHT22;8556;52.218;9.884;2023-07-29T12:17:13;26.30;99.90
16879;DHT22;8556;52.218;9.884;2023-07-29T12:19:41;26.90;99.90
16879;DHT22;8556;52.218;9.884;2023-07-29T12:22:09;26.80;99.90
16879;DHT22;8556;52.218;9.884;2023-07-29T12:24:37;26.40;99.90
16879;DHT22;8556;52.218;9.884;2023-07-29T12:27:10;26.40;99.90
16879;DHT22;8556;52.218;9.884;2023-07-29T12:29:40;26.20;99.90
16879;DHT22;8556;52.218;9.884;2023-07-29T12:32:07;26.30;99.90
16879;DHT22;8556;52.218;9.884;2023-07-29T12:34:35;26.30;99.90
16879;DHT22;8556;52.218;9.884;2023-07-29T12:37:04;26.10;99.90
16879;DHT22;8556;52.218;9.884;2023-07-29T12:39:33;26.60;99.90
16879;DHT22;8556;52.218;9.884;2023-07-29T12:42:01;26.80;99.90
16879;DHT22;8556;52.218;9.884;2023-07-29T12:44:32;26.50;99.90
16879;DHT22;8556;52.218;9.884;2023-07-29T12:47:01;26.90;99.90
16879;DHT22;8556;52.218;9.884;2023-07-29T12:49:28;27.00;99.90
16879;DHT22;8556;52.218;9.884;2023-07-29T12:51:55;27.10;84.70
16879;DHT22;8556;52.218;9.884;2023-07-29T12:54:22;27.00;79.50
16879;DHT22;8556;52.218;9.884;2023-07-29T12:56:49;26.90;54.70
16879;DHT22;8556;52.218;9.884;2023-07-29T12:59:16;27.00;22.80
16879;DHT22;8556;52.218;9.884;2023-07-29T13:01:44;27.10;47.50
16879;DHT22;8556;52.218;9.884;2023-07-29T13:04:12;26.80;50.90
16879;DHT22;8556;52.218;9.884;2023-07-29T13:06:39;26.50;29.60
16879;DHT22;8556;52.218;9.884;2023-07-29T13:09:05;25.90;19.40
16879;DHT22;8556;52.218;9.884;2023-07-29T13:11:32;26.20;10.30
16879;DHT22;8556;52.218;9.884;2023-07-29T13:13:59;26.30;20.60
16879;DHT22;8556;52.218;9.884;2023-07-29T13:16:27;26.50;29.80
16879;DHT22;8556;52.218;9.884;2023-07-29T13:18:55;26.60;30.10
16879;DHT22;8556;52.218;9.884;2023-07-29T13:21:22;27.40;23.60
16879;DHT22;8556;52.218;9.884;2023-07-29T13:23:49;26.90;6.10
16879;DHT22;8556;52.218;9.884;2023-07-29T13:26:16;27.10;1.00
16879;DHT22;8556;52.218;9.884;2023-07-29T13:28:42;26.70;1.00
16879;DHT22;8556;52.218;9.884;2023-07-29T13:31:09;26.80;1.00
16879;DHT22;8556;52.218;9.884;2023-07-29T13:33:37;26.80;1.00
16879;DHT22;8556;52.218;9.884;2023-07-29T13:36:05;26.20;1.00
16879;DHT22;8556;52.218;9.884;2023-07-29T13:38:33;25.80;5.90
16879;DHT22;8556;52.218;9.884;2023-07-29T13:41:00;26.10;13.10
16879;DHT22;8556;52.218;9.884;2023-07-29T13:43:27;26.10;12.70
16879;DHT22;8556;52.218;9.884;2023-07-29T13:45:54;26.10;27.00
16879;DHT22;8556;52.218;9.884;2023-07-29T13:48:21;25.70;18.20
16879;DHT22;8556;52.218;9.884;2023-07-29T13:50:48;25.60;15.20
16879;DHT22;8556;52.218;9.884;2023-07-29T13:53:16;26.20;16.70
16879;DHT22;8556;52.218;9.884;2023-07-29T13:55:43;26.70;28.30
16879;DHT22;8556;52.218;9.884;2023-07-29T13:58:09;26.60;1.00
16879;DHT22;8556;52.218;9.884;2023-07-29T14:00:36;26.80;1.00
16879;DHT22;8556;52.218;9.884;2023-07-29T14:03:03;26.50;1.00
16879;DHT22;8556;52.218;9.884;2023-07-29T14:05:30;26.10;15.50
16879;DHT22;8556;52.218;9.884;2023-07-29T14:07:56;26.00;1.00
16879;DHT22;8556;52.218;9.884;2023-07-29T14:10:25;25.90;1.00
16879;DHT22;8556;52.218;9.884;2023-07-29T14:12:52;26.20;1.80
16879;DHT22;8556;52.218;9.884;2023-07-29T14:15:19;26.20;5.80
16879;DHT22;8556;52.218;9.884;2023-07-29T14:17:46;26.50;15.50
16879;DHT22;8556;52.218;9.884;2023-07-29T14:20:13;26.80;10.10
16879;DHT22;8556;52.218;9.884;2023-07-29T14:22:40;27.10;20.70
16879;DHT22;8556;52.218;9.884;2023-07-29T14:25:08;26.80;3.00
16879;DHT22;8556;52.218;9.884;2023-07-29T14:27:36;26.30;6.00
16879;DHT22;8556;52.218;9.884;2023-07-29T14:30:03;26.20;15.30
16879;DHT22;8556;52.218;9.884;2023-07-29T14:32:33;26.20;16.00
16879;DHT22;8556;52.218;9.884;2023-07-29T14:35:00;26.40;1.00
16879;DHT22;8556;52.218;9.884;2023-07-29T14:37:29;26.90;1.00
16879;DHT22;8556;52.218;9.884;2023-07-29T14:39:56;26.60;2.30
16879;DHT22;8556;52.218;9.884;2023-07-29T14:42:23;26.10;1.00
16879;DHT22;8556;52.218;9.884;2023-07-29T14:44:51;25.90;1.00
16879;DHT22;8556;52.218;9.884;2023-07-29T14:47:18;26.40;9.60
16879;DHT22;8556;52.218;9.884;2023-07-29T14:49:45;26.70;23.60
16879;DHT22;8556;52.218;9.884;2023-07-29T14:52:12;26.40;23.60
16879;DHT22;8556;52.218;9.884;2023-07-29T14:54:39;26.20;21.00
16879;DHT22;8556;52.218;9.884;2023-07-29T14:57:07;25.70;22.70
16879;DHT22;8556;52.218;9.884;2023-07-29T14:59:34;25.60;18.90
16879;DHT22;8556;52.218;9.884;2023-07-29T15:02:03;25.70;37.30
16879;DHT22;8556;52.218;9.884;2023-07-29T15:04:30;25.80;38.60
16879;DHT22;8556;52.218;9.884;2023-07-29T15:06:57;26.30;46.50
16879;DHT22;8556;52.218;9.884;2023-07-29T15:09:24;26.30;38.40
16879;DHT22;8556;52.218;9.884;2023-07-29T15:11:51;25.70;16.70
16879;DHT22;8556;52.218;9.884;2023-07-29T15:14:18;25.50;12.70
16879;DHT22;8556;52.218;9.884;2023-07-29T15:16:44;25.10;21.70
16879;DHT22;8556;52.218;9.884;2023-07-29T15:19:13;25.10;16.90
16879;DHT22;8556;52.218;9.884;2023-07-29T15:21:40;25.60;38.50
16879;DHT22;8556;52.218;9.884;2023-07-29T15:24:07;25.90;26.30
16879;DHT22;8556;52.218;9.884;2023-07-29T15:26:34;25.90;23.50
16879;DHT22;8556;52.218;9.884;2023-07-29T15:29:01;25.90;20.50
16879;DHT22;8556;52.218;9.884;2023-07-29T15:31:28;25.70;25.60
16879;DHT22;8556;52.218;9.884;2023-07-29T15:33:55;26.00;42.80
16879;DHT22;8556;52.218;9.884;2023-07-29T15:36:26;25.90;42.50
16879;DHT22;8556;52.218;9.884;2023-07-29T15:38:53;25.80;29.70
16879;DHT22;8556;52.218;9.884;2023-07-29T15:41:20;25.70;29.80
16879;DHT22;8556;52.218;9.884;2023-07-29T15:43:46;25.70;19.90
16879;DHT22;8556;52.218;9.884;2023-07-29T15:46:13;25.70;16.90
16879;DHT22;8556;52.218;9.884;2023-07-29T15:48:40;25.80;25.20
16879;DHT22;8556;52.218;9.884;2023-07-29T15:51:07;25.60;29.80